Terminal Aerodrome Forecast
Issued by NWS Jackson, MS

Home | Current Version | Previous Version | Text Only | Print | Product List | Glossary On
Versions: 1 2 3 4 5 6 7 8 9 10 11 12 13 14 15 16 17 18 19 20
000
FTUS44 KJAN 281606 AAA
TAFMEI
TAF AMD
KMEI 281606Z 2816/2912 14003KT P6SM VCSH SCT018 BKN035
      TEMPO 2818/2819 5SM TSRA BKN035CB
     FM282200 12003KT P6SM BKN150
     FM291000 00000KT 4SM BR OVC003=

USA.gov is the U.S. government's official web portal to all federal, state and local government web resources and services.